Time;durP1;ratioP1;P1;durP2;ratioP2;P2;SDS_P1;SDS_P2;PMS_P1;PMS_P2;Temp;Humidity;BMP_temperature;BMP_pressure;BME280_temperature;BME280_humidity;BME280_pressure;Samples;Min_cycle;Max_cycle;Signal;HPM_P1;HPM_P2
2023/06/26 00:01:12;;;;;;;;;;;;;;;30.62;33.07;94369.38;5028493;28;9052;-62
2023/06/26 00:03:46;;;;;;;;;;;;;;;30.59;33.09;94362.13;5044487;28;8616;-61
2023/06/26 00:06:15;;;;;;;;;;;;;;;30.59;33.49;94370.47;5045150;28;8987;-62
2023/06/26 00:08:43;;;;;;;;;;;;;;;30.59;32.87;94362.88;5060975;28;7238;-61
2023/06/26 00:11:10;;;;;;;;;;;;;;;30.58;33.47;94371.75;5030149;28;8264;-62
2023/06/26 00:13:57;;;;;;;;;;;;;;;30.57;33.17;94362.69;5063729;28;7032;-61
2023/06/26 00:16:43;;;;;;;;;;;;;;;30.56;33.61;94382.66;5031741;28;8845;-61
2023/06/26 00:19:09;;;;;;;;;;;;;;;30.53;33.49;94365.81;5062648;28;7068;-62
2023/06/26 00:21:34;;;;;;;;;;;;;;;30.53;33.37;94363.03;5033292;28;7101;-62
2023/06/26 00:24:28;;;;;;;;;;;;;;;30.51;32.61;94373.91;5011549;28;8646;-61
2023/06/26 00:27:12;;;;;;;;;;;;;;;30.47;32.59;94370.75;4996785;28;7026;-61
2023/06/26 00:29:38;;;;;;;;;;;;;;;30.46;32.88;94369.28;5010554;28;8666;-61
2023/06/26 00:32:13;;;;;;;;;;;;;;;30.46;32.66;94374.81;5011105;28;9458;-61
2023/06/26 00:34:46;;;;;;;;;;;;;;;30.47;33.65;94375.56;4989751;28;7300;-61
2023/06/26 00:37:15;;;;;;;;;;;;;;;30.47;33.06;94381.13;5009056;28;7048;-62
2023/06/26 00:40:12;;;;;;;;;;;;;;;30.46;33.00;94380.38;4992667;28;7253;-61
2023/06/26 00:42:38;;;;;;;;;;;;;;;30.46;32.37;94376.84;5009388;28;8393;-62
2023/06/26 00:45:33;;;;;;;;;;;;;;;30.46;33.29;94382.41;4989582;28;7053;-61
2023/06/26 00:48:11;;;;;;;;;;;;;;;30.45;33.04;94381.66;4915281;29;7052;-62
2023/06/26 00:50:40;;;;;;;;;;;;;;;30.44;32.83;94382.19;4941014;29;9281;-62
2023/06/26 00:53:56;;;;;;;;;;;;;;;30.41;33.28;94378.47;4929497;29;7651;-62
2023/06/26 00:56:45;;;;;;;;;;;;;;;30.38;33.42;94371.22;4909615;29;7186;-62
2023/06/26 00:59:29;;;;;;;;;;;;;;;30.39;32.41;94369.19;4894504;29;7057;-62
2023/06/26 01:02:20;;;;;;;;;;;;;;;30.36;33.28;94375.84;4882973;29;7475;-62
2023/06/26 01:04:48;;;;;;;;;;;;;;;30.37;32.20;94382.88;4900704;29;7301;-62
2023/06/26 01:07:44;;;;;;;;;;;;;;;30.37;32.86;94391.19;4916146;29;7160;-62
2023/06/26 01:10:46;;;;;;;;;;;;;;;30.37;32.18;94388.44;4877565;29;7300;-62
2023/06/26 01:13:33;;;;;;;;;;;;;;;30.35;32.57;94388.22;4894186;29;7535;-62
2023/06/26 01:16:39;;;;;;;;;;;;;;;30.33;32.35;94385.25;4894917;29;7157;-62
2023/06/26 01:19:13;;;;;;;;;;;;;;;30.32;32.87;94387.28;4895426;29;9152;-61
2023/06/26 01:22:23;;;;;;;;;;;;;;;30.31;32.65;94385.81;4879565;29;7341;-62
2023/06/26 01:25:17;;;;;;;;;;;;;;;30.31;31.99;94385.81;4876907;29;9051;-62
2023/06/26 01:27:50;;;;;;;;;;;;;;;30.28;32.26;94386.84;4897383;29;7358;-62
2023/06/26 01:30:55;;;;;;;;;;;;;;;30.29;32.90;94385.56;4913964;29;7729;-62
2023/06/26 01:33:34;;;;;;;;;;;;;;;30.28;32.49;94386.09;4943201;28;9199;-61
2023/06/26 01:36:03;;;;;;;;;;;;;;;30.26;32.83;94385.91;4956091;28;7332;-62
2023/06/26 01:38:54;;;;;;;;;;;;;;;30.25;32.00;94381.66;4954366;28;7148;-62
2023/06/26 01:41:54;;;;;;;;;;;;;;;30.25;32.03;94387.19;4972098;28;8281;-62
2023/06/26 01:44:45;;;;;;;;;;;;;;;30.24;32.80;94391.25;4952199;28;8726;-62
2023/06/26 01:47:32;;;;;;;;;;;;;;;30.23;32.77;94396.03;5007482;28;8706;-62
2023/06/26 01:50:30;;;;;;;;;;;;;;;30.21;32.78;94392.34;5032342;28;9338;-62
2023/06/26 01:53:35;;;;;;;;;;;;;;;30.21;33.23;94395.84;4970087;28;7281;-62
2023/06/26 01:56:31;;;;;;;;;;;;;;;30.23;33.14;94403.66;4934088;29;7079;-62
2023/06/26 01:59:18;;;;;;;;;;;;;;;30.21;32.19;94393.06;4933962;29;9468;-62
2023/06/26 02:02:11;;;;;;;;;;;;;;;30.21;32.70;94403.44;4920578;29;9254;-62
2023/06/26 02:04:57;;;;;;;;;;;;;;;30.18;33.10;94402.50;4933678;29;9336;-62
2023/06/26 02:07:23;;;;;;;;;;;;;;;30.18;33.12;94405.28;4931426;28;9081;-61
2023/06/26 02:10:46;;;;;;;;;;;;;;;30.16;32.11;94405.06;4932725;28;7183;-61
2023/06/26 02:13:13;;;;;;;;;;;;;;;30.16;33.17;94405.06;4931060;29;8289;-62
2023/06/26 02:16:06;;;;;;;;;;;;;;;30.15;32.89;94406.34;4925462;29;9072;-62
2023/06/26 02:18:32;;;;;;;;;;;;;;;30.14;32.28;94415.22;4917517;29;8213;-62
2023/06/26 02:20:59;;;;;;;;;;;;;;;30.11;32.89;94405.94;4932245;29;9417;-62
2023/06/26 02:23:43;;;;;;;;;;;;;;;30.11;33.22;94405.19;4934531;29;7042;-62
2023/06/26 02:26:20;;;;;;;;;;;;;;;30.12;32.65;94401.88;4933598;29;7435;-62
2023/06/26 02:28:48;;;;;;;;;;;;;;;30.12;32.42;94403.91;4948032;28;7033;-62
2023/06/26 02:31:21;;;;;;;;;;;;;;;30.11;32.66;94408.72;5023066;28;7038;-62
2023/06/26 02:33:47;;;;;;;;;;;;;;;30.11;32.81;94405.94;5047434;28;9224;-62
2023/06/26 02:36:13;;;;;;;;;;;;;;;30.10;33.08;94401.66;5030359;28;7037;-62
2023/06/26 02:39:12;;;;;;;;;;;;;;;30.09;32.40;94405.72;5040078;28;8984;-62
2023/06/26 02:42:04;;;;;;;;;;;;;;;30.10;32.98;94409.97;4968672;28;7270;-62
2023/06/26 02:48:27;;;;;;;;;;;;;;;30.10;32.30;94409.25;4927075;28;7272;-62
2023/06/26 02:50:55;;;;;;;;;;;;;;;30.06;32.69;94412.34;4930612;28;7209;-62
2023/06/26 02:53:52;;;;;;;;;;;;;;;30.07;33.54;94402.75;4919641;29;9156;-62
2023/06/26 02:56:28;;;;;;;;;;;;;;;30.05;33.33;94408.09;4917509;29;7000;-62
2023/06/26 02:59:40;;;;;;;;;;;;;;;30.08;33.58;94404.22;4937652;28;7978;-61
2023/06/26 03:02:20;;;;;;;;;;;;;;;30.07;33.42;94411.09;4889229;29;9084;-63
2023/06/26 03:04:46;;;;;;;;;;;;;;;30.11;32.23;94408.72;4877736;29;7037;-62
2023/06/26 03:07:12;;;;;;;;;;;;;;;30.13;32.86;94405.38;4890037;29;7267;-62
2023/06/26 03:09:42;;;;;;;;;;;;;;;30.12;33.07;94413.00;4858776;29;9367;-62
2023/06/26 03:12:09;;;;;;;;;;;;;;;30.12;32.45;94412.22;4889871;29;9660;-62
2023/06/26 03:14:35;;;;;;;;;;;;;;;30.13;33.32;94408.16;4874475;29;7303;-62
2023/06/26 03:17:03;;;;;;;;;;;;;;;30.14;32.87;94407.63;4888469;28;8383;-62
2023/06/26 03:19:30;;;;;;;;;;;;;;;30.14;32.89;94412.44;4930056;28;8002;-62
2023/06/26 03:22:03;;;;;;;;;;;;;;;30.13;32.43;94408.91;4939043;28;7217;-62
2023/06/26 03:24:29;;;;;;;;;;;;;;;30.09;32.57;94402.22;4950315;28;7143;-62
2023/06/26 03:26:55;;;;;;;;;;;;;;;30.13;33.03;94402.63;4946082;28;7220;-62
2023/06/26 03:29:21;;;;;;;;;;;;;;;30.11;32.63;94408.72;4976158;28;7303;-62
2023/06/26 03:31:47;;;;;;;;;;;;;;;30.10;32.58;94412.75;4976673;28;9581;-62
2023/06/26 03:34:13;;;;;;;;;;;;;;;30.08;32.99;94407.00;4960005;28;7198;-62
2023/06/26 03:36:42;;;;;;;;;;;;;;;30.09;32.80;94413.31;4977195;28;9695;-62
2023/06/26 03:39:08;;;;;;;;;;;;;;;30.06;33.25;94404.03;5032194;28;7251;-62
2023/06/26 03:41:40;;;;;;;;;;;;;;;30.07;32.52;94399.22;5045982;28;7062;-62
2023/06/26 03:44:10;;;;;;;;;;;;;;;30.08;33.39;94407.00;5039630;28;7492;-62
2023/06/26 03:46:49;;;;;;;;;;;;;;;30.07;32.85;94405.53;5023138;28;7229;-62
2023/06/26 03:49:42;;;;;;;;;;;;;;;30.06;32.37;94412.34;5032970;28;7190;-62
2023/06/26 03:52:22;;;;;;;;;;;;;;;30.04;32.64;94408.63;5029955;28;7081;-62
2023/06/26 03:54:50;;;;;;;;;;;;;;;30.01;32.73;94413.25;5046749;28;8091;-62
2023/06/26 03:57:32;;;;;;;;;;;;;;;30.01;32.99;94406.94;5027639;28;8763;-62
2023/06/26 04:00:16;;;;;;;;;;;;;;;30.02;33.02;94414.72;5031079;28;9282;-62
2023/06/26 04:03:14;;;;;;;;;;;;;;;29.99;33.22;94415.81;5022810;28;7515;-62
2023/06/26 04:05:53;;;;;;;;;;;;;;;29.99;32.80;94420.63;4936759;28;9050;-62
2023/06/26 04:08:20;;;;;;;;;;;;;;;29.98;32.45;94425.41;4935831;28;7409;-62
2023/06/26 04:11:00;;;;;;;;;;;;;;;29.97;33.34;94417.63;4935776;28;7496;-62
2023/06/26 04:13:55;;;;;;;;;;;;;;;29.98;32.27;94421.88;4951128;28;7359;-62
2023/06/26 04:16:25;;;;;;;;;;;;;;;29.97;32.48;94423.19;4858123;29;7277;-62
2023/06/26 04:18:56;;;;;;;;;;;;;;;29.95;33.34;94429.25;4842068;29;9237;-62
2023/06/26 04:21:32;;;;;;;;;;;;;;;29.93;33.38;94423.50;4840960;29;7336;-62
2023/06/26 04:23:58;;;;;;;;;;;;;;;29.94;33.32;94422.22;4839780;29;7285;-62
2023/06/26 04:26:24;;;;;;;;;;;;;;;29.94;32.38;94424.25;4840232;29;9639;-62
2023/06/26 04:28:51;;;;;;;;;;;;;;;29.95;32.35;94429.25;4841588;29;9129;-62
2023/06/26 04:31:47;;;;;;;;;;;;;;;29.95;32.29;94423.69;4843375;29;7108;-62
2023/06/26 04:34:14;;;;;;;;;;;;;;;29.95;33.11;94428.53;4842462;29;7052;-62
2023/06/26 04:36:50;;;;;;;;;;;;;;;29.95;32.45;94431.31;4858154;29;9173;-62
2023/06/26 04:39:30;;;;;;;;;;;;;;;29.94;32.45;94429.78;4854319;29;7048;-62
2023/06/26 04:42:06;;;;;;;;;;;;;;;29.94;32.79;94425.00;4875784;29;7263;-62
2023/06/26 04:44:43;;;;;;;;;;;;;;;29.92;32.54;94424.03;4930996;29;7407;-62
2023/06/26 04:47:30;;;;;;;;;;;;;;;29.94;32.57;94421.47;4913338;29;8619;-62
2023/06/26 04:49:57;;;;;;;;;;;;;;;29.92;32.76;94429.59;4916584;29;8218;-62
2023/06/26 04:52:23;;;;;;;;;;;;;;;29.95;33.52;94437.56;4966386;28;7025;-62
2023/06/26 04:55:04;;;;;;;;;;;;;;;29.94;33.01;94430.53;5046232;28;7006;-62
2023/06/26 04:57:33;;;;;;;;;;;;;;;29.94;32.80;94422.22;5029754;28;8687;-62
2023/06/26 04:59:59;;;;;;;;;;;;;;;29.94;32.59;94433.31;5020647;28;7634;-62
2023/06/26 05:02:35;;;;;;;;;;;;;;;29.90;33.84;94424.59;5021522;28;7204;-62
2023/06/26 05:05:13;;;;;;;;;;;;;;;29.92;33.77;94430.34;5021884;28;7053;-62
2023/06/26 05:07:42;;;;;;;;;;;;;;;29.90;33.67;94427.38;5021660;28;7201;-62
2023/06/26 05:10:18;;;;;;;;;;;;;;;29.88;33.77;94427.16;5027309;28;7128;-62
2023/06/26 05:12:45;;;;;;;;;;;;;;;29.88;32.91;94427.16;5023526;28;7220;-62
2023/06/26 05:15:14;;;;;;;;;;;;;;;29.89;33.15;94428.63;5021009;28;7240;-62
2023/06/26 05:17:44;;;;;;;;;;;;;;;29.89;33.05;94434.19;5026875;28;9651;-62
2023/06/26 05:20:20;;;;;;;;;;;;;;;29.87;34.19;94428.44;5029841;28;7257;-62
2023/06/26 05:22:51;;;;;;;;;;;;;;;29.91;33.58;94436.41;5060185;28;7384;-63
2023/06/26 05:25:26;;;;;;;;;;;;;;;29.93;33.94;94439.41;5031299;28;9007;-63
2023/06/26 05:31:33;;;;;;;;;;;;;;;29.94;33.48;94435.34;5030705;28;9111;-62
2023/06/26 05:34:03;;;;;;;;;;;;;;;29.92;33.46;94433.13;5045668;28;7033;-62
2023/06/26 05:36:51;;;;;;;;;;;;;;;29.96;33.32;94432.78;5027791;28;9110;-62
2023/06/26 05:39:18;;;;;;;;;;;;;;;29.95;33.54;94423.69;5029262;28;7045;-62
2023/06/26 05:42:00;;;;;;;;;;;;;;;29.93;34.90;94429.03;5028060;28;7210;-62
2023/06/26 05:44:28;;;;;;;;;;;;;;;29.95;33.89;94436.84;5046889;28;9669;-61
2023/06/26 05:47:03;;;;;;;;;;;;;;;29.95;33.64;94436.84;5048973;28;8770;-62
2023/06/26 05:49:45;;;;;;;;;;;;;;;29.95;34.17;94420.22;5027772;28;9086;-63
2023/06/26 05:52:13;;;;;;;;;;;;;;;29.94;35.30;94429.78;5033329;28;9006;-62
2023/06/26 05:54:49;;;;;;;;;;;;;;;29.96;34.80;94438.31;5035116;28;9061;-62
2023/06/26 05:57:24;;;;;;;;;;;;;;;29.97;34.40;94432.22;5033325;28;9002;-62
2023/06/26 06:00:21;;;;;;;;;;;;;;;29.97;34.44;94431.50;5031149;28;9047;-62
2023/06/26 06:03:06;;;;;;;;;;;;;;;29.95;35.64;94440.34;5028448;28;9223;-63
2023/06/26 06:05:35;;;;;;;;;;;;;;;29.96;36.06;94436.31;5042041;28;9034;-63
2023/06/26 06:08:16;;;;;;;;;;;;;;;29.97;35.73;94434.28;5030149;28;7077;-63
2023/06/26 06:10:56;;;;;;;;;;;;;;;29.94;35.21;94427.03;5062415;28;7264;-60
2023/06/26 06:13:32;;;;;;;;;;;;;;;29.95;35.52;94445.16;5029485;28;7268;-63
2023/06/26 06:16:02;;;;;;;;;;;;;;;29.93;36.29;94436.66;5023440;28;7028;-63
2023/06/26 06:18:45;;;;;;;;;;;;;;;29.87;35.60;94433.97;5048948;28;7131;-62
2023/06/26 06:21:39;;;;;;;;;;;;;;;29.90;36.90;94444.00;5033907;28;7487;-62
2023/06/26 06:24:07;;;;;;;;;;;;;;;29.91;36.36;94436.41;5030917;28;7290;-63
2023/06/26 06:27:00;;;;;;;;;;;;;;;29.90;36.23;94449.56;5033071;28;6860;-63
2023/06/26 06:29:31;;;;;;;;;;;;;;;29.90;36.15;94441.22;5025937;28;7434;-62
2023/06/26 06:32:17;;;;;;;;;;;;;;;29.90;36.16;94446.78;5027380;28;7187;-63
2023/06/26 06:35:09;;;;;;;;;;;;;;;29.94;35.65;94438.13;5046196;28;9105;-62
2023/06/26 06:37:40;;;;;;;;;;;;;;;29.94;36.36;94438.88;5027394;28;7251;-61
2023/06/26 06:40:11;;;;;;;;;;;;;;;29.93;35.55;94429.03;5030321;28;9330;-63
2023/06/26 06:42:44;;;;;;;;;;;;;;;29.94;36.52;94435.34;5025942;28;9040;-62
2023/06/26 06:45:21;;;;;;;;;;;;;;;29.95;35.88;94442.41;5011778;28;7195;-62
2023/06/26 06:47:59;;;;;;;;;;;;;;;29.93;37.30;94433.88;5063466;28;7038;-63
2023/06/26 06:50:26;;;;;;;;;;;;;;;29.96;36.66;94436.31;5029446;28;9153;-63
2023/06/26 06:53:05;;;;;;;;;;;;;;;29.96;37.07;94436.31;5045075;28;9098;-63
2023/06/26 06:55:31;;;;;;;;;;;;;;;29.95;36.50;94437.56;5028453;28;8804;-63
2023/06/26 06:58:03;;;;;;;;;;;;;;;29.94;35.83;94449.97;5047282;28;9623;-62
2023/06/26 07:00:34;;;;;;;;;;;;;;;29.97;35.81;94440.53;5024068;28;7132;-63
2023/06/26 07:03:13;;;;;;;;;;;;;;;29.94;36.08;94425.00;5045755;28;9563;-62
2023/06/26 07:05:45;;;;;;;;;;;;;;;29.97;36.22;94440.53;5045549;28;7693;-63
2023/06/26 07:08:22;;;;;;;;;;;;;;;29.98;36.48;94446.84;5026093;28;7038;-63
2023/06/26 07:10:48;;;;;;;;;;;;;;;29.95;37.13;94442.41;5058206;28;7345;-63
2023/06/26 07:13:14;;;;;;;;;;;;;;;29.97;36.23;94445.38;5059834;28;7352;-63
2023/06/26 07:15:44;;;;;;;;;;;;;;;29.90;37.37;94438.47;5030616;28;7815;-61
2023/06/26 07:18:11;;;;;;;;;;;;;;;29.95;37.51;94447.94;5029376;28;9045;-63
2023/06/26 07:20:40;;;;;;;;;;;;;;;29.96;37.56;94443.88;5027767;28;7271;-62
2023/06/26 07:23:24;;;;;;;;;;;;;;;29.97;36.74;94440.53;5024309;28;7740;-63
2023/06/26 07:25:58;;;;;;;;;;;;;;;30.01;36.87;94449.31;5028602;28;9228;-63
2023/06/26 07:28:31;;;;;;;;;;;;;;;30.03;37.04;94448.75;5046764;28;7256;-63
2023/06/26 07:31:06;;;;;;;;;;;;;;;29.98;35.88;94447.59;5024732;28;9392;-62
2023/06/26 07:33:42;;;;;;;;;;;;;;;30.01;36.17;94445.78;5023620;28;7041;-63
2023/06/26 07:36:29;;;;;;;;;;;;;;;30.02;35.82;94448.00;5023502;28;9126;-63
2023/06/26 07:39:33;;;;;;;;;;;;;;;30.02;36.05;94452.81;5031527;28;7240;-62
2023/06/26 07:42:23;;;;;;;;;;;;;;;29.99;36.10;94451.13;5002911;28;7050;-62
2023/06/26 07:45:21;;;;;;;;;;;;;;;29.94;37.12;94447.19;4987430;28;7038;-63
2023/06/26 07:47:58;;;;;;;;;;;;;;;29.92;36.89;94449.00;4951589;28;7025;-62
2023/06/26 07:50:28;;;;;;;;;;;;;;;29.95;36.39;94454.22;4954709;28;7047;-62
2023/06/26 07:53:24;;;;;;;;;;;;;;;29.97;36.52;94456.47;4967205;28;8186;-62
2023/06/26 07:56:03;;;;;;;;;;;;;;;29.96;36.28;94461.25;4919965;29;7558;-61
2023/06/26 07:58:42;;;;;;;;;;;;;;;30.00;36.68;94460.91;4897435;29;9654;-63
2023/06/26 08:01:18;;;;;;;;;;;;;;;29.99;36.91;94451.88;4917899;29;9450;-63
2023/06/26 08:03:46;;;;;;;;;;;;;;;29.99;37.25;94453.91;4916944;29;8717;-62
2023/06/26 08:06:13;;;;;;;;;;;;;;;30.00;37.26;94455.38;4901551;29;7260;-64
2023/06/26 08:08:43;;;;;;;;;;;;;;;30.00;40.34;94456.13;4892731;29;9236;-63
2023/06/26 08:11:10;;;;;;;;;;;;;;;30.05;40.03;94452.47;4875653;29;9370;-62
2023/06/26 08:13:40;;;;;;;;;;;;;;;30.07;37.33;94454.72;4899449;29;7289;-63
2023/06/26 08:16:13;;;;;;;;;;;;;;;30.07;37.78;94447.16;4919011;29;9039;-63
2023/06/26 08:18:39;;;;;;;;;;;;;;;30.11;36.82;94450.31;4907347;29;8694;-63
2023/06/26 08:21:36;;;;;;;;;;;;;;;30.12;37.14;94449.06;4904918;29;9053;-63
2023/06/26 08:24:04;;;;;;;;;;;;;;;30.10;36.72;94442.56;4885794;29;6998;-63
2023/06/26 08:26:34;;;;;;;;;;;;;;;30.10;35.75;94448.81;4905813;29;8789;-62
2023/06/26 08:29:00;;;;;;;;;;;;;;;30.13;36.02;94456.06;4889550;29;6864;-62
2023/06/26 08:31:27;;;;;;;;;;;;;;;30.10;36.57;94448.81;4900006;28;7605;-63
2023/06/26 08:33:55;;;;;;;;;;;;;;;30.12;35.68;94446.28;4964079;28;7135;-63
2023/06/26 08:36:21;;;;;;;;;;;;;;;30.12;36.05;94440.72;4965343;28;7159;-63
2023/06/26 08:38:48;;;;;;;;;;;;;;;30.13;36.66;94442.19;4952082;28;7281;-62
2023/06/26 08:41:16;;;;;;;;;;;;;;;30.12;35.52;94442.75;4969024;28;9070;-62
2023/06/26 08:43:42;;;;;;;;;;;;;;;30.13;36.27;94442.19;4951895;28;7026;-63
2023/06/26 08:46:12;;;;;;;;;;;;;;;30.15;35.64;94442.41;4982966;28;9045;-62
2023/06/26 08:49:21;;;;;;;;;;;;;;;30.15;34.51;94445.19;4955430;28;8390;-62
2023/06/26 08:52:13;;;;;;;;;;;;;;;30.16;33.64;94441.13;4969397;28;9064;-62
2023/06/26 08:54:49;;;;;;;;;;;;;;;30.16;34.13;94441.13;4982996;28;8284;-62
2023/06/26 08:57:31;;;;;;;;;;;;;;;30.20;34.90;94438.75;4954636;28;7080;-62
2023/06/26 08:59:58;;;;;;;;;;;;;;;30.23;34.36;94440.44;4987699;28;7000;-61
2023/06/26 09:02:53;;;;;;;;;;;;;;;30.23;34.66;94432.13;5016471;28;8107;-62
2023/06/26 09:05:27;;;;;;;;;;;;;;;30.24;35.02;94447.50;4952532;28;7957;-62
2023/06/26 09:08:30;;;;;;;;;;;;;;;30.27;33.86;94443.66;4967239;28;9032;-63
2023/06/26 09:11:18;;;;;;;;;;;;;;;30.28;34.80;94439.56;4961577;28;7707;-61
2023/06/26 09:14:13;;;;;;;;;;;;;;;30.30;35.01;94442.53;4962397;28;9370;-61
2023/06/26 09:16:42;;;;;;;;;;;;;;;30.32;34.48;94445.56;4969163;28;6860;-61
2023/06/26 09:19:25;;;;;;;;;;;;;;;30.31;34.40;94437.78;4952552;28;8996;-62
2023/06/26 09:22:03;;;;;;;;;;;;;;;30.34;34.15;94445.03;4972232;28;7198;-61
2023/06/26 09:24:32;;;;;;;;;;;;;;;30.31;34.48;94435.75;4952932;28;7969;-62
2023/06/26 09:26:58;;;;;;;;;;;;;;;30.33;34.13;94449.84;4962648;28;7256;-61
2023/06/26 09:29:26;;;;;;;;;;;;;;;30.35;34.29;94440.97;4967147;28;7262;-61
2023/06/26 09:31:52;;;;;;;;;;;;;;;30.42;34.68;94451.38;4965528;28;7122;-62
2023/06/26 09:34:19;;;;;;;;;;;;;;;30.43;33.63;94448.06;4950387;28;7156;-61
2023/06/26 09:36:46;;;;;;;;;;;;;;;30.42;34.86;94441.03;4960273;28;7283;-61
2023/06/26 09:39:14;;;;;;;;;;;;;;;30.47;34.23;94439.41;4969545;28;9098;-61
2023/06/26 09:41:45;;;;;;;;;;;;;;;30.46;33.46;94444.22;5001101;28;7056;-61
2023/06/26 09:44:15;;;;;;;;;;;;;;;30.45;33.90;94439.94;5031663;28;7029;-61
2023/06/26 09:46:50;;;;;;;;;;;;;;;30.46;34.63;94447.00;5034132;28;7059;-61
2023/06/26 09:49:23;;;;;;;;;;;;;;;30.44;34.29;94444.00;5028293;28;7267;-61
2023/06/26 09:51:50;;;;;;;;;;;;;;;30.45;33.09;94442.72;5026319;28;7395;-61
2023/06/26 09:54:25;;;;;;;;;;;;;;;30.44;33.68;94449.56;5026050;28;9203;-61
2023/06/26 09:57:07;;;;;;;;;;;;;;;30.48;34.75;94444.41;5029243;28;7047;-61
2023/06/26 09:59:37;;;;;;;;;;;;;;;30.52;34.43;94432.97;5032240;28;7431;-61
2023/06/26 10:02:07;;;;;;;;;;;;;;;30.49;33.41;94431.28;5047208;28;7244;-62
2023/06/26 10:04:37;;;;;;;;;;;;;;;30.51;33.18;94437.75;5027738;28;7036;-62
2023/06/26 10:07:11;;;;;;;;;;;;;;;30.50;33.36;94419.63;5030680;28;7041;-62
2023/06/26 10:09:42;;;;;;;;;;;;;;;30.53;34.43;94424.09;5027079;28;7280;-61
2023/06/26 10:12:19;;;;;;;;;;;;;;;30.61;34.38;94426.94;5044930;28;7216;-62
2023/06/26 10:15:12;;;;;;;;;;;;;;;30.66;34.23;94425.31;5024867;28;9078;-61
2023/06/26 10:18:07;;;;;;;;;;;;;;;30.65;33.64;94423.81;5031751;28;7024;-62
2023/06/26 10:20:42;;;;;;;;;;;;;;;30.67;34.09;94426.81;5033211;28;7294;-62
2023/06/26 10:23:25;;;;;;;;;;;;;;;30.68;33.52;94429.03;5047656;28;7290;-62
2023/06/26 10:26:09;;;;;;;;;;;;;;;30.68;32.46;94422.72;5032822;28;7838;-62
2023/06/26 10:28:42;;;;;;;;;;;;;;;30.67;33.38;94413.66;5029992;28;7387;-62
2023/06/26 10:31:12;;;;;;;;;;;;;;;30.67;33.01;94427.53;5029808;28;7247;-62
2023/06/26 10:33:40;;;;;;;;;;;;;;;30.70;33.84;94429.22;5044583;28;9169;-62
2023/06/26 10:36:15;;;;;;;;;;;;;;;30.76;32.56;94434.63;5061259;28;7284;-62
2023/06/26 10:38:57;;;;;;;;;;;;;;;30.77;32.93;94427.78;5028904;28;7241;-62
2023/06/26 10:41:25;;;;;;;;;;;;;;;30.73;32.89;94422.59;5060295;28;6993;-62
2023/06/26 10:44:11;;;;;;;;;;;;;;;30.75;32.78;94427.59;5043500;28;8810;-62
2023/06/26 10:46:55;;;;;;;;;;;;;;;30.75;32.74;94424.81;5042997;28;8708;-62
2023/06/26 10:49:27;;;;;;;;;;;;;;;30.78;32.44;94415.38;5021910;28;8895;-62
2023/06/26 10:52:09;;;;;;;;;;;;;;;30.77;31.98;94430.56;5060256;28;7491;-61
2023/06/26 10:54:42;;;;;;;;;;;;;;;30.80;32.17;94423.94;5045275;28;7143;-61
2023/06/26 10:57:25;;;;;;;;;;;;;;;30.79;31.63;94419.66;5030288;28;7297;-61
2023/06/26 11:00:18;;;;;;;;;;;;;;;30.82;32.02;94422.06;5043221;28;7001;-61
2023/06/26 11:06:31;;;;;;;;;;;;;;;30.87;32.34;94417.69;5033644;28;7050;-61
2023/06/26 11:09:08;;;;;;;;;;;;;;;30.86;31.65;94422.53;5031214;28;7258;-61
2023/06/26 11:12:24;;;;;;;;;;;;;;;30.87;31.40;94423.25;5034674;28;8698;-61
2023/06/26 11:14:52;;;;;;;;;;;;;;;30.88;31.71;94421.97;5023155;28;7294;-62
2023/06/26 11:17:20;;;;;;;;;;;;;;;30.89;31.44;94415.13;5046444;28;9385;-61
2023/06/26 11:19:50;;;;;;;;;;;;;;;30.86;31.80;94416.97;5032693;28;7361;-62
2023/06/26 11:22:17;;;;;;;;;;;;;;;30.88;31.83;94419.19;5048088;28;7033;-62
2023/06/26 11:24:59;;;;;;;;;;;;;;;30.88;32.53;94419.94;5036905;28;7104;-61
2023/06/26 11:27:53;;;;;;;;;;;;;;;30.91;32.22;94415.31;5025185;28;7274;-62
2023/06/26 11:30:31;;;;;;;;;;;;;;;30.89;32.07;94417.88;5024905;28;7228;-62
2023/06/26 11:33:10;;;;;;;;;;;;;;;30.88;31.83;94413.66;5029038;28;8768;-62
2023/06/26 11:35:42;;;;;;;;;;;;;;;30.87;31.96;94417.69;5022259;28;9578;-62
2023/06/26 11:38:40;;;;;;;;;;;;;;;30.89;31.27;94423.44;5022149;28;7205;-62
2023/06/26 11:41:42;;;;;;;;;;;;;;;30.90;31.21;94422.16;4984553;28;9140;-62
2023/06/26 11:44:10;;;;;;;;;;;;;;;30.88;32.04;94416.41;4953216;28;7171;-61
2023/06/26 11:46:38;;;;;;;;;;;;;;;30.90;32.67;94422.94;4959637;28;7185;-62
2023/06/26 11:49:16;;;;;;;;;;;;;;;30.89;31.52;94426.97;4957487;28;9167;-60
2023/06/26 11:51:42;;;;;;;;;;;;;;;30.90;31.69;94422.94;4954933;28;9116;-60
2023/06/26 11:54:08;;;;;;;;;;;;;;;30.90;31.09;94422.94;4959526;28;7049;-61
2023/06/26 11:56:37;;;;;;;;;;;;;;;30.90;31.77;94414.59;4961521;28;7563;-60
2023/06/26 11:59:06;;;;;;;;;;;;;;;30.93;32.09;94407.19;4951952;28;7253;-61
2023/06/26 12:01:44;;;;;;;;;;;;;;;30.97;32.36;94411.09;4954627;28;7220;-61
2023/06/26 12:04:45;;;;;;;;;;;;;;;31.01;32.37;94417.06;4957698;28;7174;-61
2023/06/26 12:07:14;;;;;;;;;;;;;;;31.03;32.37;94399.84;4924103;28;8461;-60
2023/06/26 12:10:11;;;;;;;;;;;;;;;31.01;32.27;94402.44;4923952;28;9457;-60
2023/06/26 12:13:21;;;;;;;;;;;;;;;30.99;31.60;94402.94;4868761;29;7085;-60
2023/06/26 12:16:26;;;;;;;;;;;;;;;31.03;32.09;94403.38;4827429;29;7887;-60
2023/06/26 12:19:01;;;;;;;;;;;;;;;31.02;32.45;94401.13;4787365;29;8311;-60
2023/06/26 12:21:41;;;;;;;;;;;;;;;31.03;31.90;94405.41;4775098;29;7207;-61
2023/06/26 12:24:23;;;;;;;;;;;;;;;31.01;31.75;94411.50;4788988;29;9366;-60
2023/06/26 12:27:19;;;;;;;;;;;;;;;31.02;32.53;94410.22;4803194;29;7884;-61
2023/06/26 12:30:04;;;;;;;;;;;;;;;31.01;32.49;94405.97;4802440;29;8941;-61
2023/06/26 12:32:31;;;;;;;;;;;;;;;31.01;31.69;94405.22;4806366;29;9033;-61
2023/06/26 12:35:16;;;;;;;;;;;;;;;30.99;32.65;94413.34;4791370;29;7291;-61
2023/06/26 12:37:56;;;;;;;;;;;;;;;31.02;32.31;94407.44;4804791;29;8840;-61
2023/06/26 12:40:46;;;;;;;;;;;;;;;31.03;32.34;94416.50;4790289;29;7215;-61
2023/06/26 12:43:22;;;;;;;;;;;;;;;31.05;33.30;94400.03;4817904;29;9508;-60
2023/06/26 12:49:50;;;;;;;;;;;;;;;31.06;33.46;94401.50;4850585;29;9377;-60
2023/06/26 12:52:18;;;;;;;;;;;;;;;31.10;33.97;94401.94;4949021;28;7365;-61
2023/06/26 12:55:05;;;;;;;;;;;;;;;31.12;33.61;94394.50;4951812;28;7262;-60
2023/06/26 12:57:52;;;;;;;;;;;;;;;31.12;34.21;94400.06;4953261;28;7295;-61
2023/06/26 13:00:27;;;;;;;;;;;;;;;31.14;33.89;94397.50;4969496;28;7789;-60
2023/06/26 13:02:58;;;;;;;;;;;;;;;31.15;34.18;94398.97;4972921;28;6869;-60
2023/06/26 13:05:24;;;;;;;;;;;;;;;31.17;34.12;94406.75;4980461;28;9304;-60
2023/06/26 13:07:51;;;;;;;;;;;;;;;31.16;34.72;94405.28;4997564;28;9076;-60
2023/06/26 13:10:17;;;;;;;;;;;;;;;31.15;34.24;94404.53;4962122;28;8966;-60
2023/06/26 13:12:44;;;;;;;;;;;;;;;31.16;34.61;94400.47;4963740;28;7356;-60
2023/06/26 13:15:13;;;;;;;;;;;;;;;31.13;34.08;94384.91;4976906;28;7462;-61
2023/06/26 13:17:40;;;;;;;;;;;;;;;31.12;34.16;94391.00;4971412;28;8797;-60
2023/06/26 13:20:09;;;;;;;;;;;;;;;31.16;34.42;94394.94;5003086;28;8943;-60
2023/06/26 13:22:35;;;;;;;;;;;;;;;31.19;35.18;94404.19;5001120;28;7027;-61
2023/06/26 13:25:02;;;;;;;;;;;;;;;31.20;34.49;94405.69;5007105;28;7256;-60
2023/06/26 13:27:28;;;;;;;;;;;;;;;31.18;34.73;94394.38;5043417;28;8994;-61
2023/06/26 13:29:56;;;;;;;;;;;;;;;31.19;34.86;94393.06;5041579;28;7031;-61
2023/06/26 13:32:25;;;;;;;;;;;;;;;31.19;34.45;94393.06;5057879;28;7321;-61
2023/06/26 13:34:52;;;;;;;;;;;;;;;31.16;34.35;94386.59;5021035;28;9391;-61
2023/06/26 13:37:18;;;;;;;;;;;;;;;31.22;34.73;94401.06;5021753;28;7100;-61
2023/06/26 13:39:49;;;;;;;;;;;;;;;31.19;35.31;94404.19;5026787;28;7375;-61
2023/06/26 13:42:18;;;;;;;;;;;;;;;31.22;35.26;94400.31;5027534;28;7883;-61
2023/06/26 13:44:54;;;;;;;;;;;;;;;31.22;35.67;94403.09;5033028;28;7146;-61
2023/06/26 13:47:25;;;;;;;;;;;;;;;31.23;34.97;94404.59;5028363;28;9018;-62
2023/06/26 13:50:31;;;;;;;;;;;;;;;31.24;34.85;94400.50;5035426;28;7069;-61
2023/06/26 13:52:57;;;;;;;;;;;;;;;31.23;35.62;94399.75;4976035;28;7048;-61
2023/06/26 13:55:41;;;;;;;;;;;;;;;31.22;34.92;94400.31;4984020;28;6880;-61
2023/06/26 13:58:24;;;;;;;;;;;;;;;31.24;35.06;94394.94;4966870;28;8697;-61
2023/06/26 14:00:59;;;;;;;;;;;;;;;31.25;35.32;94394.38;4974812;28;7009;-61
2023/06/26 14:03:44;;;;;;;;;;;;;;;31.28;34.72;94395.34;4975187;28;9190;-61
2023/06/26 14:06:10;;;;;;;;;;;;;;;31.30;35.30;94392.75;4986503;28;7449;-61